Weather observations for the past three days for
Asheboro, Asheboro Municipal Airport
Imperial (Metric)
Date Time (edt) Wind (mph) Vis. (mi.) Weather Sky Cond. Temperature (ºF) Relative Humidity Wind Chill (°F) Heat Index (°F) Pressure Precipitation (in)
Air Dwpt 6 hour altimeter (in) sea level (mb) 1 hr 3 hr 6 hr
Max. Min.
05 23:15 S 12 G 16 10.00 Fair CLR 65.1 48.6 55% 29.99 0.0
05 22:55 S 9 10.00 Fair CLR 66.2 47.3 51% 29.99 0.0
05 22:35 S 7 10.00 Fair CLR 66.7 45.3 46% 29.99 0.0
05 22:15 S 8 10.00 Fair CLR 67.3 45.1 45% 29.99 0.0
05 21:55 SE 7 10.00 Fair CLR 67.6 44.8 44% 29.99 0.0
05 21:35 S 6 10.00 Fair CLR 68 44.8 43% 29.99 0.0
05 21:15 S 7 10.00 Fair CLR 68.9 44.6 42% 29.98 0.0
05 20:55 S 6 10.00 Fair CLR 69.3 44.1 40% 29.97 0.0
05 20:35 S 6 10.00 Fair CLR 70 43.7 39% 29.97 0.0
05 20:15 S 5 10.00 Fair CLR 71.6 42.8 36% 29.97 0.0
05 19:55 S 6 10.00 Fair CLR 73.4 42.3 79.9 73.4 33% 29.96 0.0
05 19:35 S 7 10.00 Fair CLR 74.7 42.1 31% 29.96 0.0
05 19:15 S 12 10.00 Fair CLR 75.6 41.9 30% 77 29.95 0.0
05 18:55 S 16 G 22 10.00 Fair CLR 76.8 41.7 29% 77 29.96 0.0
05 18:35 S 12 G 17 10.00 Fair CLR 77 42.1 29% 78 29.96 0.0
05 18:15 S 16 G 23 10.00 Partly Cloudy SCT080 77.7 41.4 27% 78 29.96 0.0
05 17:55 S 10 G 21 10.00 Mostly Cloudy BKN080 77.9 42.8 29% 78 29.96 0.0
05 17:35 S 17 G 22 10.00 Mostly Cloudy BKN080 79.2 43 28% 79 29.96 0.0
05 17:15 S 16 G 25 10.00 Partly Cloudy SCT080 78.1 41.4 27% 78 29.97 0.0
05 16:55 SW 14 G 22 10.00 Partly Cloudy SCT080 79.3 41.9 26% 79 29.97 0.0
05 16:35 S 16 G 23 10.00 Partly Cloudy SCT070 79.7 42.3 26% 79 29.97 0.0
05 16:15 S 12 G 20 10.00 Partly Cloudy SCT070 77.7 43 29% 78 29.97 0.0
05 15:55 S 15 G 18 10.00 Fair CLR 78.1 42.1 28% 78 29.98 0.0
05 15:35 S 13 G 21 10.00 Fair CLR 78.3 42.1 28% 78 29.99 0.0
05 15:15 S 17 G 23 10.00 Fair CLR 79 42.3 27% 78 30 0.0
05 14:55 S 14 G 21 10.00 Fair CLR 77.9 41.7 28% 78 30.01 0.0
05 14:35 S 10 G 17 10.00 Fair CLR 77.4 42.8 29% 78 30.02 0.0
05 14:15 S 13 G 18 10.00 Partly Cloudy SCT065 76.8 42.8 30% 78 30.03 0.0
05 13:55 S 8 10.00 Fair CLR 75.7 43.9 75.7 57.9 32% 77 30.03 0.0
05 13:35 S 7 G 12 10.00 Fair CLR 75.4 43.7 32% 77 30.03 0.0
05 12:55 SW 12 G 21 10.00 Fair CLR 74.8 43 32% 30.04 0.0
05 12:35 S 14 G 20 10.00 Fair CLR 74.5 43.5 33% 30.05 0.0
05 12:15 SW 9 10.00 Fair CLR 73.2 46.2 38% 30.05 0.0
05 11:55 S 8 10.00 Fair CLR 72 47.8 42% 30.06 0.0
05 11:35 SW 12 10.00 Fair CLR 71.6 48.4 44% 30.06 0.0
05 11:15 S 9 10.00 Fair CLR 70.2 49.6 48% 30.06 0.0
05 10:55 S 7 G 16 10.00 Fair CLR 69.3 49.3 49% 30.06 0.0
05 10:35 SW 10 10.00 Fair CLR 68.4 49.3 51% 30.06 0.0
05 10:15 SW 12 10.00 Fair CLR 67.3 50.2 54% 30.06 0.0
05 09:55 SW 10 G 17 10.00 Fair CLR 65.7 50.2 58% 30.06 0.0
05 09:35 SW 9 10.00 Fair CLR 64 50.7 62% 30.06 0.0
05 09:15 SW 10 10.00 Fair CLR 62.1 50.2 65% 30.06 0.0
05 08:35 SW 12 10.00 Fair CLR 60.3 49.3 67% 30.06 0.0
05 08:15 S 8 10.00 Fair CLR 59 48.9 69% 30.06 0.0
05 07:55 S 8 10.00 Fair CLR 57.7 48.4 61.3 54.9 71% 30.05 0.0
05 07:35 S 7 10.00 Fair CLR 56.5 48.2 74% 30.05 0.0
05 07:15 S 5 10.00 Fair CLR 54.9 47.5 76% 30.05 0.0
05 06:55 S 3 10.00 Fair CLR 54.9 47.1 75% 30.05 0.0
05 06:35 SW 5 10.00 Fair CLR 55.2 46.9 74% 30.04 0.0
05 06:15 SW 6 10.00 Fair CLR 55.8 46.8 72% 30.03 0.0
05 05:55 S 7 10.00 Fair CLR 56.8 46.8 69% 30.03 0.0
05 05:35 S 7 10.00 Fair CLR 57.4 46.4 67% 30.02 0.0
05 05:15 S 8 10.00 Fair CLR 57.7 46.4 66% 30.01 0.0
05 04:55 S 8 10.00 Fair CLR 58.1 45.9 64% 30.01 0.0
05 04:35 S 8 10.00 Fair CLR 58.1 45.7 64% 30.01 0.0
05 04:15 S 9 10.00 Fair CLR 58.5 45.5 62% 30.01 0.0
05 03:55 S 10 10.00 Fair CLR 59 45.5 61% 30.01 0.0
05 03:35 SW 10 10.00 Fair CLR 59.4 45.5 60% 30 0.0
05 03:15 S 9 10.00 Fair CLR 60.1 45.5 59% 30 0.0
05 02:55 S 9 G 16 10.00 Fair CLR 60.3 45.5 58% 30 0.0
05 02:35 S 9 10.00 Fair CLR 60.8 45.1 57% 30 0.0
05 02:15 S 8 10.00 Fair CLR 61.2 45.1 56% 30 0.0
05 01:55 S 9 10.00 Fair CLR 61.3 45 70 61.3 55% 30 0.0
05 01:35 S 10 10.00 Fair CLR 62.1 45 54% 30 0.0
05 01:15 S 10 10.00 Fair CLR 62.8 44.6 52% 30.01 0.0
05 00:55 S 12 G 17 10.00 Fair CLR 63.5 44.1 49% 30.01 0.0
05 00:35 S 12 G 17 10.00 Fair CLR 63.9 43.7 48% 30.01 0.0
05 00:15 S 9 10.00 Fair CLR 64.4 42.6 45% 30.01 0.0
04 23:55 S 7 10.00 Fair CLR 63.7 39.7 42% 30.01 0.0
04 23:35 S 7 10.00 Fair CLR 64.6 38.8 39% 30.01 0.0
04 23:15 S 8 10.00 Fair CLR 64.8 38.5 38% 30.01 0.0
04 22:55 S 6 10.00 Fair CLR 64.4 37.4 37% 30.01 0.0
04 22:35 S 7 10.00 Fair CLR 65.5 35.6 33% 30.01 0.0
04 22:15 S 6 10.00 Fair CLR 65.1 34.3 32% 30 0.0
04 21:55 S 5 10.00 Fair CLR 65.5 34.3 32% 30 0.0
04 21:35 S 7 10.00 Fair CLR 66.2 34.7 31% 29.99 0.0
04 21:15 S 6 10.00 Fair CLR 66.9 35.1 31% 29.99 0.0
04 20:55 Calm 10.00 Fair CLR 63.7 38.1 39% 29.98 0.0
04 20:35 Calm 10.00 Fair CLR 64.6 38.5 38% 29.97 0.0
04 20:15 Calm 10.00 Fair CLR 66.9 37.2 34% 29.97 0.0
04 19:55 Calm 10.00 Fair CLR 70.2 36 77 70.2 29% 29.96 0.0
04 19:35 S 3 10.00 Fair CLR 73.4 33.4 23% 29.96 0.0
04 19:15 S 6 10.00 Fair CLR 74.7 32.2 21% 29.96 0.0
04 18:55 S 7 10.00 Fair CLR 75.9 32.4 20% 76 29.95 0.0
04 18:35 S 8 10.00 Fair CLR 76.1 32.2 20% 76 29.95 0.0
04 18:15 SW 9 G 16 10.00 Fair CLR 76.6 31.5 19% 77 29.96 0.0
04 17:55 SW 8 10.00 Fair CLR 76.3 33.6 21% 77 29.96 0.0
04 17:35 S 9 10.00 Fair CLR 76.5 35.6 23% 77 29.96 0.0
04 17:15 SW 6 10.00 Fair CLR 76.5 35.8 23% 77 29.96 0.0
04 16:55 S 10 10.00 Fair CLR 76.3 37.6 25% 77 29.96 0.0
04 16:35 SW 7 10.00 Fair CLR 76.5 37 24% 77 29.97 0.0
04 16:15 S 6 10.00 Fair CLR 75.9 37.2 25% 77 29.97 0.0
04 15:55 S 10 10.00 Fair CLR 75.7 36.1 24% 77 29.98 0.0
04 15:35 S 8 10.00 Fair CLR 75.6 36.7 24% 77 29.98 0.0
04 15:15 S 9 10.00 Fair CLR 75.2 36.1 24% 77 29.99 0.0
04 14:55 S 7 10.00 Fair CLR 75.2 36.1 24% 77 29.99 0.0
04 14:35 W 6 10.00 Fair CLR 73.4 36.7 26% 30 0.0
04 14:15 SW 12 10.00 Fair CLR 73.2 35.6 25% 30 0.0
04 13:55 S 5 10.00 Fair CLR 72.9 34.3 72.9 45.9 24% 30.01 0.0
04 13:35 Calm 10.00 Fair CLR 72.7 33.3 24% 30.01 0.0
04 13:15 W 3 10.00 Fair CLR 71.4 31.8 23% 30.02 0.0
04 12:55 SW 6 10.00 Fair CLR 71.1 31.3 23% 30.03 0.0
04 12:35 W 7 10.00 Fair CLR 69.8 34.2 27% 30.05 0.0
04 12:15 SW 7 10.00 Fair CLR 68.9 35.8 30% 30.06 0.0
04 11:55 SW 6 10.00 Fair CLR 67.3 38.3 35% 30.06 0.0
04 11:35 SW 6 10.00 Fair CLR 66 38.3 36% 30.07 0.0
04 11:15 W 3 10.00 Fair CLR 64.8 37 36% 30.07 0.0
04 10:55 NW 3 10.00 Fair CLR 63.1 43 48% 30.07 0.0
04 10:35 SW 3 10.00 Fair CLR 61.3 42.1 49% 30.07 0.0
04 10:15 Calm 10.00 Fair CLR 59.2 42.4 54% 30.07 0.0
04 09:55 S 6 10.00 Fair CLR 57.7 42.8 58% 30.06 0.0
04 09:35 W 3 10.00 Fair CLR 55.4 42.6 62% 30.07 0.0
04 09:15 SW 5 10.00 Fair CLR 55 43.2 64% 30.07 0.0
04 08:55 SW 6 10.00 Fair CLR 53.1 43 69% 30.07 0.0
04 08:35 SW 5 10.00 Fair CLR 51.4 43.5 74% 30.06 0.0
04 08:15 SW 3 10.00 Fair CLR 47.7 43.3 85% 30.06 0.0
04 07:55 Calm 10.00 Fair CLR 45.1 42.1 47.3 39 89% 30.07 0.0
04 07:35 Calm 10.00 Fair CLR 42.3 40.1 92% 30.07 0.0
04 07:15 Calm 10.00 Fair CLR 41.2 39.2 93% 30.07 0.0
04 06:55 Calm 10.00 Fair CLR 41 38.5 91% 30.07 0.0
04 06:35 Calm 10.00 Fair CLR 40.1 38.3 93% 30.06 0.0
04 06:15 Calm 10.00 Fair CLR 39.2 37.4 93% 30.07 0.0
04 05:55 Calm 10.00 Fair CLR 41.2 38.7 91% 30.06 0.0
04 05:35 Calm 10.00 Fair CLR 39.2 37.2 93% 30.06 0.0
04 05:15 Calm 10.00 Fair CLR 41 38.7 91% 30.06 0.0
04 04:55 Calm 10.00 Fair CLR 42.8 38.7 85% 30.06 0.0
04 04:35 Calm 10.00 Fair CLR 41.2 38.3 90% 30.05 0.0
04 04:15 Calm 10.00 Fair CLR 43.2 38.7 84% 30.05 0.0
04 03:55 Calm 10.00 Fair CLR 42.8 37.9 83% 30.05 0.0
04 03:35 Calm 10.00 Fair CLR 47.3 38.7 72% 30.05 0.0
04 03:15 Calm 10.00 Fair CLR 45.7 39.2 78% 30.05 0.0
04 02:55 Calm 10.00 Fair CLR 45.5 39.9 81% 30.05 0.0
04 02:35 Calm 10.00 Fair CLR 45.5 39.6 80% 30.05 0.0
04 02:15 Calm 10.00 Fair CLR 45.1 38.3 77% 30.06 0.0
04 01:55 Calm 10.00 Fair CLR 45.5 37.8 58.1 45.5 74% 30.06 0.0
04 01:35 Calm 10.00 Fair CLR 48.7 39 69% 30.06 0.0
04 01:15 Calm 10.00 Fair CLR 48.6 38.8 69% 30.06 0.0
04 00:55 Calm 10.00 Fair CLR 49.1 36.9 63% 30.06 0.0
04 00:35 Calm 10.00 Fair CLR 49.5 36.3 61% 30.06 0.0
04 00:15 Calm 10.00 Fair CLR 48.7 36 61% 30.06 0.0
03 23:55 Calm 10.00 Fair CLR 48.6 36.7 64% 30.07 0.0
03 23:35 Calm 10.00 Fair CLR 49.8 34.9 57% 30.07 0.0
03 23:15 Calm 10.00 Fair CLR 49.5 32.7 53% 30.07 0.0
03 22:55 Calm 10.00 Fair CLR 49.1 34 56% 30.06 0.0
03 22:35 Calm 10.00 Fair CLR 49.8 34 55% 30.06 0.0
03 22:15 SW 3 10.00 Fair CLR 50.5 34.3 54% 30.06 0.0
03 21:55 Calm 10.00 Fair CLR 51.3 34.7 53% 30.05 0.0
03 21:35 Calm 10.00 Fair CLR 51.1 35.1 54% 30.05 0.0
03 21:15 Calm 10.00 Fair CLR 50.5 37 60% 30.05 0.0
03 20:55 Calm 10.00 Fair CLR 51.3 37.4 59% 30.04 0.0
03 20:35 Calm 10.00 Fair CLR 52.7 36.5 54% 30.03 0.0
03 20:15 Calm 10.00 Fair CLR 55.4 35.2 47% 30.03 0.0
03 19:55 Calm 10.00 Fair CLR 58.5 34.7 64.4 58.5 41% 30.03 0.0
03 19:35 Calm 10.00 Fair CLR 62.6 28.2 27% 30.02 0.0
03 19:15 SW 3 10.00 Fair CLR 63.5 27.5 26% 30.03 0.0
03 18:55 SW 5 10.00 Fair CLR 63.5 27.3 25% 30.03 0.0
03 18:35 NW 3 10.00 Fair CLR 63.5 26.8 25% 30.03 0.0
03 18:15 NW 6 10.00 Fair CLR 63.9 27.3 25% 30.04 0.0
03 17:55 NW 5 10.00 Fair CLR 63.7 26.1 24% 30.04 0.0
03 17:35 Calm 10.00 Fair CLR 63.5 26.6 25% 30.04 0.0
03 17:15 W 6 10.00 Fair CLR 63.9 26.8 25% 30.04 0.0
03 16:35 SW 6 10.00 Fair CLR 63.1 23.4 22% 30.05 0.0
03 16:15 NW 7 10.00 Fair CLR 62.6 22.8 22% 30.06 0.0
03 15:55 W 9 10.00 Fair CLR 62.2 23.4 23% 30.07 0.0
03 15:35 S 5 10.00 Fair CLR 62.6 25.3 24% 30.07 0.0
03 15:15 Calm 10.00 Fair CLR 60.6 24.3 25% 30.09 0.0
03 14:55 W 6 10.00 Fair CLR 61.7 25.2 25% 30.09 0.0
03 14:35 NW 9 10.00 Fair CLR 62.1 26.1 25% 30.09 0.0
03 14:15 W 6 10.00 Fair CLR 60.1 27 28% 30.1 0.0
03 13:55 W 7 10.00 Fair CLR 59.4 24.4 59.5 38.7 26% 30.11 0.0
03 13:35 NW 6 10.00 Fair CLR 58.6 25.7 28% 30.11 0.0
03 13:15 NW 8 10.00 Fair CLR 59 25.9 28% 30.12 0.0
03 12:55 NW 6 G 9 10.00 Fair CLR 57.4 25.9 30% 30.13 0.0
03 12:35 NW 10 10.00 Fair CLR 57.2 25.9 30% 30.14 0.0
03 12:15 NW 9 10.00 Fair CLR 57 24.6 29% 30.14 0.0
03 11:55 NW 9 10.00 Fair CLR 55.4 24.8 31% 30.15 0.0
03 11:35 NW 7 10.00 Fair CLR 55.2 26.8 33% 30.15 0.0
03 11:15 N 5 10.00 Fair CLR 54 26.8 35% 30.15 0.0
03 10:55 N 9 10.00 Fair CLR 53.1 27.3 37% 30.15 0.0
03 10:35 NW 9 G 16 10.00 Fair CLR 52.7 27 37% 30.15 0.0
03 10:15 N 10 10.00 Fair CLR 52.2 28.4 40% 30.15 0.0
03 09:55 NW 12 G 17 10.00 Fair CLR 51.3 32.7 49% 30.15 0.0
03 09:35 NW 5 10.00 Fair CLR 50 35.2 57% 49 30.14 0.0
03 09:15 N 6 10.00 Fair CLR 47.7 35.6 63% 45 30.14 0.0
03 08:55 N 5 10.00 Fair CLR 46 36.1 68% 44 30.14 0.0
03 08:35 Calm 10.00 Fair CLR 43.5 37.6 80% 30.14 0.0
03 08:15 Calm 10.00 Fair CLR 41.4 36.5 83% 30.14 0.0
03 07:55 Calm 10.00 Fair CLR 38.3 36.7 38.3 33.8 94% 30.13 0.0
03 07:35 Calm 10.00 Fair CLR 35.6 34.9 97% 30.13 0.0
03 07:15 Calm 10.00 Fair CLR 35.1 34.2 97% 30.12 0.0
03 06:35 Calm 10.00 Fair CLR 34 33.4 98% 30.1 0.0
03 06:15 Calm 10.00 Fair CLR 33.8 32.5 95% 30.09 0.0
03 05:35 Calm 10.00 Fair CLR 35.2 34.5 97% 30.07 0.0
03 05:15 Calm 10.00 Fair CLR 35.4 34.7 97% 30.07 0.0
03 04:55 Calm 10.00 Fair CLR 35.1 34.3 97% 30.07 0.0
03 04:35 Calm 10.00 Fair CLR 36 35.2 97% 30.07 0.0
03 04:15 Calm 10.00 Fair CLR 36.1 35.6 98% 30.06 0.0
03 03:55 Calm 10.00 Fair CLR 35.6 35.1 98% 30.06 0.0
03 03:35 Calm 10.00 Fair CLR 36.1 35.6 98% 30.05 0.0
03 03:15 Calm 10.00 Fair CLR 36.5 36 98% 30.04 0.0
03 02:55 Calm 10.00 Fair CLR 36.7 36.1 98% 30.04 0.0
03 02:35 Calm 10.00 Fair CLR 36.5 35.8 97% 30.03 0.0
03 02:15 Calm 10.00 Fair CLR 36.9 36.1 97% 30.03 0.0
03 01:55 Calm 10.00 Fair CLR 37.6 36.9 50.2 37.4 97% 30.03 0.0
03 01:35 Calm 10.00 Fair CLR 38.1 37.2 97% 30.03 0.0
03 01:15 Calm 10.00 Fair CLR 38.7 37.8 97% 30.03 0.0
03 00:55 Calm 10.00 Fair CLR 38.5 37 95% 30.02 0.0
03 00:35 Calm 10.00 Fair CLR 39.2 38.3 97% 30.02 0.0
03 00:15 Calm 10.00 Fair CLR 40.1 39.2 97% 30.02 0.0
02 23:55 Calm 10.00 Fair CLR 40.5 39.2 95% 30.01 0.0
Date Time (edt) Wind (mph) Vis. (mi.) Weather Sky Cond. Air Dwpt Max. Min. Relative Humidity Wind Chill (°F) Heat Index (°F) altimeter (in) sea level (mb) 1 hr 3 hr 6 hr
6 hour
Temperature (ºF) Pressure Precipitation (in)